createdAt,value
2022-10-28T00:02:17.922Z,15.00
2022-10-28T00:04:37.708Z,8.20
2022-10-28T00:06:57.269Z,11.68
2022-10-28T00:09:16.865Z,11.13
2022-10-28T00:11:36.335Z,11.25
2022-10-28T00:13:58.924Z,16.20
2022-10-28T00:16:21.218Z,8.98
2022-10-28T00:18:41.607Z,14.23
2022-10-28T00:21:04.131Z,14.48
2022-10-28T00:23:24.219Z,9.32
2022-10-28T00:25:43.744Z,10.02
2022-10-28T00:28:03.424Z,8.98
2022-10-28T00:30:23.046Z,28.08
2022-10-28T00:32:43.045Z,12.82
2022-10-28T00:35:02.871Z,17.17
2022-10-28T00:37:23.259Z,25.75
2022-10-28T00:39:43.143Z,13.35
2022-10-28T00:42:03.002Z,47.17
2022-10-28T00:45:07.840Z,54.83
2022-10-28T00:47:39.268Z,61.85
2022-10-28T00:50:33.133Z,53.33
2022-10-28T00:52:57.594Z,8.45
2022-10-28T00:55:18.600Z,7.78
2022-10-28T00:57:41.030Z,11.60
2022-10-28T01:00:03.508Z,9.10
2022-10-28T01:02:23.656Z,14.90
2022-10-28T01:04:43.856Z,10.85
2022-10-28T01:07:03.568Z,11.20
2022-10-28T01:09:23.054Z,8.82
2022-10-28T01:11:55.993Z,10.88
2022-10-28T01:14:21.178Z,9.95
2022-10-28T01:16:59.602Z,10.27
2022-10-28T01:19:58.477Z,11.23
2022-10-28T01:22:42.467Z,13.43
2022-10-28T01:25:20.750Z,12.40
2022-10-28T01:28:04.976Z,17.92
2022-10-28T01:30:28.321Z,7.93
2022-10-28T01:32:58.177Z,12.35
2022-10-28T01:35:34.503Z,16.20
2022-10-28T01:38:07.615Z,13.18
2022-10-28T01:40:48.835Z,11.82
2022-10-28T01:43:14.563Z,8.68
2022-10-28T01:45:42.101Z,7.07
2022-10-28T01:48:08.109Z,7.15
2022-10-28T01:50:43.141Z,8.60
2022-10-28T01:53:09.024Z,18.92
2022-10-28T01:55:45.100Z,7.13
2022-10-28T01:58:07.865Z,6.93
2022-10-28T02:00:28.627Z,8.27
2022-10-28T02:02:50.123Z,7.32
2022-10-28T02:05:41.523Z,7.55
2022-10-28T02:08:17.628Z,16.27
2022-10-28T02:10:45.670Z,32.10
2022-10-28T02:13:12.738Z,22.27
2022-10-28T02:15:58.737Z,99.95
2022-10-28T02:18:37.140Z,48.17
2022-10-28T02:21:14.773Z,56.65
2022-10-28T02:23:57.308Z,87.32
2022-10-28T02:26:17.102Z,29.23
2022-10-28T02:28:53.889Z,75.65
2022-10-28T02:31:23.774Z,129.23
2022-10-28T02:33:48.889Z,64.13
2022-10-28T02:36:13.781Z,86.47
2022-10-28T02:38:41.645Z,25.52
2022-10-28T02:41:20.215Z,72.70
2022-10-28T02:43:42.687Z,99.32
2022-10-28T02:46:04.052Z,8.25
2022-10-28T02:48:47.625Z,5.40
2022-10-28T02:53:36.518Z,11.75
2022-10-28T02:55:59.583Z,17.55
2022-10-28T03:00:44.677Z,8.38
2022-10-28T03:03:04.418Z,13.07
2022-10-28T03:05:24.136Z,13.98
2022-10-28T03:07:44.049Z,16.83
2022-10-28T03:10:04.697Z,14.48
2022-10-28T03:12:24.431Z,17.20
2022-10-28T03:14:44.233Z,15.07
2022-10-28T03:17:03.876Z,11.95
2022-10-28T03:19:24.310Z,10.23
2022-10-28T03:21:44.298Z,9.50
2022-10-28T03:24:04.499Z,8.45
2022-10-28T03:26:24.509Z,9.10
2022-10-28T03:28:44.133Z,8.00
2022-10-28T03:31:04.763Z,11.95
2022-10-28T03:33:24.205Z,8.50
2022-10-28T03:35:44.254Z,9.98
2022-10-28T03:38:04.544Z,11.40
2022-10-28T03:40:24.387Z,10.43
2022-10-28T03:42:44.037Z,7.25
2022-10-28T03:45:04.172Z,8.55
2022-10-28T03:47:24.360Z,8.57
2022-10-28T03:49:44.006Z,10.45
2022-10-28T03:52:03.773Z,7.53
2022-10-28T03:54:23.379Z,7.68
2022-10-28T03:56:42.949Z,7.25
2022-10-28T03:59:02.979Z,9.80
2022-10-28T04:01:22.764Z,9.10
2022-10-28T04:03:43.197Z,7.95
2022-10-28T04:06:03.355Z,8.32
2022-10-28T04:08:23.031Z,7.80
2022-10-28T04:10:47.325Z,8.10
2022-10-28T04:13:08.238Z,13.68
2022-10-28T04:15:28.171Z,7.63
2022-10-28T04:17:47.780Z,9.18
2022-10-28T04:20:08.264Z,9.38
2022-10-28T04:22:27.998Z,9.60
2022-10-28T04:24:47.757Z,14.55
2022-10-28T04:27:07.482Z,12.20
2022-10-28T04:29:27.726Z,7.55
2022-10-28T04:31:49.934Z,9.07
2022-10-28T04:34:12.231Z,8.80
2022-10-28T04:36:32.329Z,8.07
2022-10-28T04:38:52.215Z,21.10
2022-10-28T04:41:13.925Z,9.30
2022-10-28T04:43:33.958Z,8.05
2022-10-28T04:45:53.729Z,7.47
2022-10-28T04:48:13.253Z,9.88
2022-10-28T04:50:33.008Z,7.70
2022-10-28T04:52:52.970Z,10.63
2022-10-28T04:55:12.754Z,11.77
2022-10-28T04:57:32.365Z,6.70
2022-10-28T04:59:51.859Z,11.70
2022-10-28T05:02:11.570Z,7.15
2022-10-28T05:04:31.680Z,7.40
2022-10-28T05:06:51.149Z,7.05
2022-10-28T05:09:11.038Z,9.10
2022-10-28T05:11:31.172Z,8.10
2022-10-28T05:13:52.532Z,7.70
2022-10-28T05:16:12.693Z,7.53
2022-10-28T05:18:32.297Z,8.93
2022-10-28T05:20:54.170Z,8.77
2022-10-28T05:23:14.117Z,12.77
2022-10-28T05:25:33.836Z,11.18
2022-10-28T05:27:56.955Z,6.82
2022-10-28T05:30:16.586Z,9.23
2022-10-28T05:32:36.575Z,7.78
2022-10-28T05:34:56.433Z,6.95
2022-10-28T05:37:16.155Z,6.40
2022-10-28T05:39:36.346Z,5.50
2022-10-28T05:41:56.036Z,24.90
2022-10-28T05:44:15.711Z,17.95
2022-10-28T05:46:35.364Z,5.53
2022-10-28T05:48:55.301Z,5.63
2022-10-28T05:51:14.883Z,7.88
2022-10-28T05:53:35.273Z,11.93
2022-10-28T05:55:55.336Z,9.05
2022-10-28T05:58:15.838Z,10.57
2022-10-28T06:00:35.768Z,14.25
2022-10-28T06:03:08.676Z,9.57
2022-10-28T06:05:28.566Z,11.73
2022-10-28T06:07:48.617Z,11.27
2022-10-28T06:10:09.589Z,11.55
2022-10-28T06:12:27.822Z,6.80
2022-10-28T06:14:47.934Z,7.28
2022-10-28T06:17:07.577Z,7.68
2022-10-28T06:19:27.691Z,9.18
2022-10-28T06:21:47.313Z,9.88
2022-10-28T06:24:12.155Z,10.32
2022-10-28T06:26:32.656Z,8.38
2022-10-28T06:28:52.545Z,8.05
2022-10-28T06:31:12.245Z,6.78
2022-10-28T06:33:32.058Z,9.15
2022-10-28T06:35:56.192Z,12.57
2022-10-28T06:38:16.174Z,10.60
2022-10-28T06:40:35.736Z,8.63
2022-10-28T06:43:06.288Z,14.65
2022-10-28T06:45:31.041Z,11.98
2022-10-28T06:48:01.207Z,8.68
2022-10-28T06:50:20.868Z,12.93
2022-10-28T06:52:40.554Z,13.25
2022-10-28T06:55:00.542Z,16.58
2022-10-28T06:57:20.529Z,10.40
2022-10-28T06:59:41.358Z,14.20
2022-10-28T07:02:01.557Z,8.80
2022-10-28T07:04:21.443Z,9.10
2022-10-28T07:06:41.111Z,13.85
2022-10-28T07:09:00.790Z,8.80
2022-10-28T07:11:20.521Z,8.45
2022-10-28T07:13:41.730Z,18.02
2022-10-28T07:16:04.586Z,10.60
2022-10-28T07:18:26.196Z,13.13
2022-10-28T07:20:46.166Z,7.07
2022-10-28T07:23:06.263Z,12.27
2022-10-28T07:25:28.433Z,13.20
2022-10-28T07:27:48.366Z,8.93
2022-10-28T07:30:08.557Z,7.30
2022-10-28T07:32:32.411Z,10.23
2022-10-28T07:34:52.122Z,10.43
2022-10-28T07:37:12.254Z,7.65
2022-10-28T07:39:32.255Z,7.75
2022-10-28T07:41:52.129Z,12.10
2022-10-28T07:44:11.991Z,7.55
2022-10-28T07:46:31.744Z,11.93
2022-10-28T07:48:51.229Z,6.70
2022-10-28T07:51:13.096Z,12.30
2022-10-28T07:53:33.564Z,9.85
2022-10-28T07:56:14.745Z,8.90
2022-10-28T07:58:36.048Z,12.73
2022-10-28T08:00:56.354Z,15.57
2022-10-28T08:03:16.269Z,6.70
2022-10-28T08:05:36.355Z,13.85
2022-10-28T08:07:56.560Z,10.93
2022-10-28T08:10:16.826Z,8.32
2022-10-28T08:12:36.308Z,14.60
2022-10-28T08:14:56.148Z,15.93
2022-10-28T08:17:16.500Z,8.77
2022-10-28T08:19:36.913Z,7.18
2022-10-28T08:21:57.050Z,13.32
2022-10-28T08:24:16.821Z,7.85
2022-10-28T08:26:36.429Z,11.95
2022-10-28T08:28:56.154Z,7.68
2022-10-28T08:31:15.922Z,8.98
2022-10-28T08:33:37.364Z,18.48
2022-10-28T08:35:57.301Z,11.52
2022-10-28T08:38:17.096Z,11.50
2022-10-28T08:40:49.653Z,8.57
2022-10-28T08:43:40.332Z,10.07
2022-10-28T08:46:31.274Z,10.00
2022-10-28T08:48:51.528Z,10.80
2022-10-28T08:51:20.364Z,13.25
2022-10-28T08:53:46.817Z,10.35
2022-10-28T08:56:24.905Z,10.18
2022-10-28T08:58:46.504Z,15.63
2022-10-28T09:01:13.284Z,7.25
2022-10-28T09:03:39.939Z,9.20
2022-10-28T09:06:05.709Z,11.05
2022-10-28T09:08:28.453Z,11.45
2022-10-28T09:11:09.951Z,11.95
2022-10-28T09:13:38.662Z,8.57
2022-10-28T09:16:15.274Z,7.95
2022-10-28T09:18:39.281Z,6.10
2022-10-28T09:23:39.516Z,8.40
2022-10-28T09:26:32.776Z,6.28
2022-10-28T09:29:16.968Z,8.98
2022-10-28T09:31:54.632Z,13.02
2022-10-28T09:34:38.075Z,12.85
2022-10-28T09:37:21.684Z,5.22
2022-10-28T09:39:45.512Z,8.68
2022-10-28T09:42:06.216Z,13.93
2022-10-28T09:44:32.139Z,11.88
2022-10-28T09:46:56.392Z,11.88
2022-10-28T09:49:21.870Z,7.75
2022-10-28T09:51:56.939Z,12.73
2022-10-28T09:54:18.866Z,7.50
2022-10-28T09:56:39.468Z,10.48
2022-10-28T09:59:02.364Z,6.13
2022-10-28T10:03:42.893Z,8.98
2022-10-28T10:06:31.065Z,12.88
2022-10-28T10:08:51.453Z,7.93
2022-10-28T10:11:24.119Z,9.60
2022-10-28T10:13:45.220Z,10.30
2022-10-28T10:16:31.627Z,11.70
2022-10-28T10:18:57.098Z,6.85
2022-10-28T10:21:19.547Z,6.60
2022-10-28T10:26:11.074Z,10.30
2022-10-28T10:28:35.853Z,8.10
2022-10-28T10:30:58.600Z,10.48
2022-10-28T10:33:25.415Z,16.67
2022-10-28T10:35:59.141Z,10.90
2022-10-28T10:38:19.952Z,4.15
2022-10-28T10:40:52.499Z,6.75
2022-10-28T10:45:48.105Z,8.43
2022-10-28T10:48:13.522Z,11.85
2022-10-28T10:50:34.008Z,10.45
2022-10-28T10:52:57.048Z,8.60
2022-10-28T10:55:38.929Z,9.38
2022-10-28T10:57:59.815Z,11.13
2022-10-28T11:00:22.697Z,7.45
2022-10-28T11:02:46.656Z,11.32
2022-10-28T11:05:09.696Z,8.57
2022-10-28T11:09:51.671Z,9.93
2022-10-28T11:12:31.332Z,4.82
2022-10-28T11:14:59.526Z,7.25
2022-10-28T11:17:25.950Z,6.07
2022-10-28T11:19:45.780Z,9.43
2022-10-28T11:22:30.811Z,11.98
2022-10-28T11:25:26.595Z,6.90
2022-10-28T11:28:04.407Z,9.63
2022-10-28T11:31:09.855Z,7.22
2022-10-28T11:33:45.026Z,7.78
2022-10-28T11:36:31.306Z,8.95
2022-10-28T11:39:22.724Z,5.35
2022-10-28T11:42:04.144Z,5.72
2022-10-28T11:44:56.274Z,8.80
2022-10-28T11:47:40.348Z,3.47
2022-10-28T11:50:20.573Z,7.20
2022-10-28T11:53:00.263Z,6.72
2022-10-28T11:55:45.860Z,4.28
2022-10-28T11:58:23.581Z,7.43
2022-10-28T12:01:15.853Z,3.33
2022-10-28T12:03:38.655Z,7.93
2022-10-28T12:06:22.364Z,5.50
2022-10-28T12:08:58.452Z,4.82
2022-10-28T12:11:49.397Z,6.22
2022-10-28T12:14:09.479Z,4.60
2022-10-28T12:16:44.067Z,3.22
2022-10-28T12:19:29.153Z,4.50
2022-10-28T12:22:09.207Z,7.68
2022-10-28T12:24:33.561Z,3.25
2022-10-28T12:26:57.431Z,6.90
2022-10-28T12:29:36.575Z,7.80
2022-10-28T12:32:11.136Z,4.45
2022-10-28T12:34:39.425Z,1.77
2022-10-28T12:37:08.776Z,3.80
2022-10-28T12:39:39.100Z,9.50
2022-10-28T12:42:18.542Z,6.53
2022-10-28T12:44:39.768Z,5.78
2022-10-28T12:47:07.668Z,5.30
2022-10-28T12:50:09.467Z,4.07
2022-10-28T12:52:38.045Z,1.65
2022-10-28T12:57:52.365Z,7.55
2022-10-28T13:00:12.732Z,2.92
2022-10-28T13:02:40.029Z,3.95
2022-10-28T13:04:59.772Z,4.80
2022-10-28T13:08:06.867Z,9.57
2022-10-28T13:10:31.912Z,5.57
2022-10-28T13:13:13.658Z,58.85
2022-10-28T13:15:48.677Z,40.47
2022-10-28T13:18:08.609Z,12.38
2022-10-28T13:20:41.323Z,6.40
2022-10-28T13:23:23.245Z,6.45
2022-10-28T13:25:51.152Z,2.65
2022-10-28T13:28:16.193Z,3.40
2022-10-28T13:30:36.120Z,6.03
2022-10-28T13:33:01.539Z,4.97
2022-10-28T13:35:27.122Z,4.70
2022-10-28T13:37:49.288Z,2.33
2022-10-28T13:40:33.133Z,8.73
2022-10-28T13:42:53.780Z,11.60
2022-10-28T13:45:51.820Z,7.60
2022-10-28T13:48:42.703Z,4.55
2022-10-28T13:51:08.827Z,3.28
2022-10-28T13:53:28.805Z,9.45
2022-10-28T13:55:48.223Z,71.13
2022-10-28T13:58:25.884Z,91.35
2022-10-28T14:00:47.901Z,22.70
2022-10-28T14:03:20.681Z,10.70
2022-10-28T14:05:43.203Z,36.92
2022-10-28T14:08:19.711Z,3.83
2022-10-28T14:10:39.764Z,9.30
2022-10-28T14:15:37.898Z,4.80
2022-10-28T14:20:28.583Z,3.85
2022-10-28T14:22:50.415Z,3.67
2022-10-28T14:25:42.972Z,13.63
2022-10-28T14:28:03.040Z,13.40
2022-10-28T14:30:23.080Z,8.48
2022-10-28T14:32:55.483Z,8.27
2022-10-28T14:35:18.922Z,3.53
2022-10-28T14:37:53.709Z,8.80
2022-10-28T14:40:30.401Z,16.13
2022-10-28T14:43:13.895Z,1.80
2022-10-28T14:45:34.893Z,3.83
2022-10-28T14:48:04.193Z,6.97
2022-10-28T14:50:31.864Z,2.63
2022-10-28T14:52:54.156Z,4.07
2022-10-28T14:55:26.806Z,6.25
2022-10-28T14:57:46.717Z,1.55
2022-10-28T15:00:08.189Z,2.38
2022-10-28T15:02:29.242Z,2.23
2022-10-28T15:05:03.861Z,5.75
2022-10-28T15:07:23.795Z,1.23
2022-10-28T15:09:48.047Z,5.65
2022-10-28T15:12:14.775Z,7.00
2022-10-28T15:14:51.409Z,1.85
2022-10-28T15:17:21.762Z,2.25
2022-10-28T15:19:42.824Z,3.20
2022-10-28T15:22:06.655Z,6.20
2022-10-28T15:24:26.796Z,1.73
2022-10-28T15:26:53.674Z,6.05
2022-10-28T15:29:13.610Z,5.13
2022-10-28T15:31:33.130Z,8.95
2022-10-28T15:33:52.765Z,6.75
2022-10-28T15:36:18.587Z,7.95
2022-10-28T15:38:41.052Z,4.68
2022-10-28T15:41:00.815Z,7.53
2022-10-28T15:43:27.323Z,3.83
2022-10-28T15:45:47.178Z,9.40
2022-10-28T15:48:12.829Z,9.77
2022-10-28T15:50:35.771Z,12.68
2022-10-28T15:53:31.988Z,5.82
2022-10-28T15:56:12.590Z,8.02
2022-10-28T15:58:38.704Z,8.75
2022-10-28T16:00:58.635Z,7.60
2022-10-28T16:03:46.778Z,5.32
2022-10-28T16:06:27.324Z,5.28
2022-10-28T16:08:47.993Z,8.13
2022-10-28T16:11:16.918Z,7.70
2022-10-28T16:13:41.431Z,5.60
2022-10-28T16:16:15.021Z,4.72
2022-10-28T16:18:45.624Z,6.53
2022-10-28T16:21:05.872Z,7.43
2022-10-28T16:23:34.214Z,5.90
2022-10-28T16:25:54.237Z,6.18
2022-10-28T16:28:21.940Z,4.50
2022-10-28T16:30:41.885Z,8.00
2022-10-28T16:33:02.259Z,5.20
2022-10-28T16:35:23.700Z,5.15
2022-10-28T16:37:45.780Z,4.43
2022-10-28T16:40:09.238Z,5.38
2022-10-28T16:42:42.527Z,8.52
2022-10-28T16:45:02.176Z,8.43
2022-10-28T16:47:25.929Z,6.10
2022-10-28T16:49:51.218Z,7.60
2022-10-28T16:52:28.582Z,5.72
2022-10-28T16:54:49.412Z,6.75
2022-10-28T16:57:09.368Z,5.50
2022-10-28T16:59:29.544Z,5.28
2022-10-28T17:01:49.890Z,12.52
2022-10-28T17:04:10.050Z,6.10
2022-10-28T17:06:29.622Z,7.10
2022-10-28T17:09:02.354Z,9.77
2022-10-28T17:11:22.988Z,4.10
2022-10-28T17:13:42.905Z,4.82
2022-10-28T17:16:02.675Z,6.05
2022-10-28T17:18:23.196Z,4.70
2022-10-28T17:20:42.924Z,8.60
2022-10-28T17:23:04.717Z,3.10
2022-10-28T17:25:25.316Z,5.47
2022-10-28T17:27:47.709Z,8.15
2022-10-28T17:30:08.330Z,8.85
2022-10-28T17:32:28.172Z,5.05
2022-10-28T17:34:48.116Z,4.05
2022-10-28T17:37:08.057Z,7.10
2022-10-28T17:39:28.153Z,7.78
2022-10-28T17:41:48.289Z,8.98
2022-10-28T17:44:08.297Z,9.50
2022-10-28T17:46:28.058Z,4.20
2022-10-28T17:48:48.083Z,6.07
2022-10-28T17:51:07.982Z,8.40
2022-10-28T17:53:27.844Z,8.63
2022-10-28T17:56:03.347Z,7.90
2022-10-28T17:58:23.303Z,5.95
2022-10-28T18:00:44.854Z,9.50
2022-10-28T18:03:05.582Z,13.57
2022-10-28T18:05:25.658Z,8.82
2022-10-28T18:07:45.664Z,8.48
2022-10-28T18:10:07.258Z,15.52
2022-10-28T18:12:27.264Z,14.10
2022-10-28T18:14:47.460Z,14.52
2022-10-28T18:17:07.276Z,8.10
2022-10-28T18:19:27.280Z,7.43
2022-10-28T18:21:47.206Z,11.10
2022-10-28T18:24:07.579Z,4.30
2022-10-28T18:26:27.483Z,5.05
2022-10-28T18:28:48.344Z,10.07
2022-10-28T18:31:13.687Z,7.93
2022-10-28T18:33:33.934Z,11.27
2022-10-28T18:36:17.604Z,9.90
2022-10-28T18:38:37.570Z,9.23
2022-10-28T18:40:57.641Z,6.82
2022-10-28T18:43:17.411Z,10.27
2022-10-28T18:45:37.067Z,5.13
2022-10-28T18:47:57.262Z,4.78
2022-10-28T18:50:17.368Z,6.22
2022-10-28T18:52:36.958Z,6.90
2022-10-28T18:54:56.688Z,8.70
2022-10-28T18:57:16.440Z,14.52
2022-10-28T18:59:43.239Z,16.83
2022-10-28T19:02:12.246Z,15.18
2022-10-28T19:04:32.491Z,18.65
2022-10-28T19:06:52.176Z,13.82
2022-10-28T19:09:11.967Z,31.40
2022-10-28T19:11:32.759Z,18.30
2022-10-28T19:13:52.753Z,15.68
2022-10-28T19:18:38.399Z,15.43
2022-10-28T19:21:07.576Z,13.65
2022-10-28T19:23:27.765Z,11.93
2022-10-28T19:25:56.056Z,11.23
2022-10-28T19:28:15.733Z,13.82
2022-10-28T19:30:36.894Z,13.98
2022-10-28T19:32:56.784Z,8.75
2022-10-28T19:35:17.146Z,10.00
2022-10-28T19:37:36.965Z,9.32
2022-10-28T19:39:56.762Z,8.02
2022-10-28T19:42:16.809Z,14.55
2022-10-28T19:44:36.471Z,7.70
2022-10-28T19:46:56.030Z,6.25
2022-10-28T19:49:15.611Z,7.55
2022-10-28T19:51:40.383Z,7.20
2022-10-28T19:54:02.257Z,13.13
2022-10-28T19:56:22.010Z,6.87
2022-10-28T19:58:41.578Z,9.63
2022-10-28T20:01:04.929Z,6.95
2022-10-28T20:03:24.983Z,15.85
2022-10-28T20:05:45.371Z,58.13
2022-10-28T20:08:05.232Z,31.15
2022-10-28T20:10:25.005Z,13.43
2022-10-28T20:12:44.577Z,8.60
2022-10-28T20:15:05.346Z,11.25
2022-10-28T20:17:25.383Z,19.70
2022-10-28T20:19:45.031Z,15.25
2022-10-28T20:22:04.823Z,12.05
2022-10-28T20:24:25.854Z,10.45
2022-10-28T20:26:45.472Z,10.50
2022-10-28T20:29:09.076Z,11.90
2022-10-28T20:31:30.969Z,11.68
2022-10-28T20:33:56.992Z,13.60
2022-10-28T20:36:30.137Z,13.90
2022-10-28T20:38:59.018Z,10.75
2022-10-28T20:41:18.652Z,10.20
2022-10-28T20:43:38.505Z,8.68
2022-10-28T20:46:00.595Z,12.38
2022-10-28T20:48:21.501Z,8.75
2022-10-28T20:50:49.182Z,7.25
2022-10-28T20:53:08.782Z,7.38
2022-10-28T20:55:28.427Z,7.30
2022-10-28T20:57:48.043Z,6.55
2022-10-28T21:00:08.683Z,9.55
2022-10-28T21:02:28.830Z,7.18
2022-10-28T21:04:48.870Z,6.53
2022-10-28T21:07:08.605Z,7.57
2022-10-28T21:09:28.466Z,7.82
2022-10-28T21:11:48.292Z,8.32
2022-10-28T21:14:08.019Z,9.10
2022-10-28T21:16:29.152Z,6.20
2022-10-28T21:18:49.684Z,6.93
2022-10-28T21:21:10.374Z,7.95
2022-10-28T21:23:30.880Z,9.32
2022-10-28T21:25:55.212Z,10.40
2022-10-28T21:28:14.839Z,7.65
2022-10-28T21:30:34.707Z,7.13
2022-10-28T21:32:54.929Z,7.80
2022-10-28T21:35:15.574Z,10.82
2022-10-28T21:37:35.791Z,7.03
2022-10-28T21:40:00.822Z,6.82
2022-10-28T21:42:20.871Z,6.07
2022-10-28T21:44:40.615Z,6.97
2022-10-28T21:47:01.017Z,9.88
2022-10-28T21:49:21.079Z,7.20
2022-10-28T21:51:41.604Z,6.72
2022-10-28T21:54:01.309Z,6.93
2022-10-28T21:56:21.004Z,7.85
2022-10-28T21:58:41.133Z,9.93
2022-10-28T22:01:07.280Z,6.97
2022-10-28T22:03:27.077Z,8.68
2022-10-28T22:05:50.393Z,7.47
2022-10-28T22:10:29.670Z,7.95
2022-10-28T22:12:49.313Z,8.75
2022-10-28T22:15:09.300Z,7.45
2022-10-28T22:17:29.164Z,9.15
2022-10-28T22:19:51.623Z,7.97
2022-10-28T22:22:13.071Z,9.07
2022-10-28T22:24:32.683Z,7.05
2022-10-28T22:26:52.405Z,7.55
2022-10-28T22:29:12.183Z,7.25
2022-10-28T22:31:32.966Z,8.18
2022-10-28T22:33:53.206Z,14.13
2022-10-28T22:36:17.962Z,9.15
2022-10-28T22:38:38.190Z,8.18
2022-10-28T22:41:06.268Z,9.45
2022-10-28T22:43:26.335Z,6.25
2022-10-28T22:45:46.017Z,7.45
2022-10-28T22:48:05.841Z,6.03
2022-10-28T22:50:25.676Z,7.20
2022-10-28T22:52:45.220Z,8.57
2022-10-28T22:55:05.713Z,7.30
2022-10-28T22:57:25.259Z,6.30
2022-10-28T22:59:44.861Z,7.07
2022-10-28T23:02:04.672Z,7.72
2022-10-28T23:04:24.583Z,9.18
2022-10-28T23:06:44.086Z,7.75
2022-10-28T23:09:04.120Z,6.82
2022-10-28T23:11:23.800Z,6.35
2022-10-28T23:13:43.416Z,10.85
2022-10-28T23:16:11.403Z,9.27
2022-10-28T23:18:31.705Z,5.57
2022-10-28T23:20:51.335Z,5.40
2022-10-28T23:23:10.938Z,4.22
2022-10-28T23:25:30.702Z,4.40
2022-10-28T23:27:50.699Z,3.90
2022-10-28T23:30:12.434Z,4.50
2022-10-28T23:32:32.167Z,4.80
2022-10-28T23:34:51.883Z,8.88
2022-10-28T23:37:11.755Z,10.57
2022-10-28T23:39:31.497Z,6.00
2022-10-28T23:41:51.193Z,6.88
2022-10-28T23:44:10.913Z,6.30
2022-10-28T23:46:36.442Z,5.43
2022-10-28T23:48:57.163Z,7.43
2022-10-28T23:51:18.613Z,6.05
2022-10-28T23:53:38.492Z,5.20
2022-10-28T23:55:58.443Z,6.70
2022-10-28T23:58:20.094Z,6.53
